Time;durP1;ratioP1;P1;durP2;ratioP2;P2;SDS_P1;SDS_P2;PMS_P1;PMS_P2;Temp;Humidity;BMP_temperature;BMP_pressure;BME280_temperature;BME280_humidity;BME280_pressure;Samples;Min_cycle;Max_cycle;Signal;HPM_P1;HPM_P2
2021/12/16 00:07:04;;;;;;;33.97;13.70;;;8.00;99.90;;;;;;4994457;28;20406;-30
2021/12/16 00:34:04;;;;;;;30.47;12.57;;;8.10;99.90;;;;;;5030751;28;20132;-30
2021/12/16 00:36:34;;;;;;;28.50;12.43;;;8.20;99.90;;;;;;5019273;28;20591;-30
2021/12/16 00:39:06;;;;;;;25.30;11.90;;;8.10;99.90;;;;;;5010620;28;20080;-30
2021/12/16 00:41:32;;;;;;;28.60;12.52;;;8.20;99.90;;;;;;5012033;28;20464;-31
2021/12/16 00:44:06;;;;;;;30.97;12.33;;;8.30;99.90;;;;;;5010874;28;20134;-31
2021/12/16 00:49:19;;;;;;;27.67;11.50;;;8.20;99.90;;;;;;5009102;28;20038;-30
2021/12/16 00:54:30;;;;;;;30.30;11.77;;;8.20;99.90;;;;;;5030808;28;20107;-31
2021/12/16 00:57:01;;;;;;;32.77;11.67;;;8.20;99.90;;;;;;5016136;28;20563;-30
2021/12/16 00:59:32;;;;;;;;;;;8.20;99.90;;;;;;5030660;28;20041;-31
2021/12/16 01:35:18;;;;;;;20.10;9.37;;;8.30;99.90;;;;;;5029599;28;20056;-30
2021/12/16 01:46:21;;;;;;;21.10;9.67;;;8.30;99.90;;;;;;5010801;28;20410;-30
2021/12/16 01:51:27;;;;;;;23.90;10.23;;;8.30;99.90;;;;;;5009577;28;20052;-31
2021/12/16 01:57:36;;;;;;;25.43;9.77;;;8.40;99.90;;;;;;4995227;28;20139;-30
2021/12/16 02:00:04;;;;;;;22.10;9.63;;;8.50;99.90;;;;;;5006758;28;20046;-31
2021/12/16 02:02:39;;;;;;;23.47;9.50;;;8.40;99.90;;;;;;5027054;28;20444;-30
2021/12/16 02:08:15;;;;;;;24.23;9.70;;;8.40;99.90;;;;;;5013481;28;20496;-30
2021/12/16 02:10:46;;;;;;;24.83;10.27;;;8.40;99.90;;;;;;5029568;28;20045;-30
2021/12/16 02:13:45;;;;;;;27.50;9.40;;;8.40;99.90;;;;;;5028947;28;20566;-31
2021/12/16 02:27:33;;;;;;;25.87;9.47;;;8.40;99.90;;;;;;5008321;28;20053;-30
2021/12/16 02:35:11;;;;;;;23.57;10.07;;;8.40;99.90;;;;;;5029479;28;20057;-31
2021/12/16 02:37:45;;;;;;;22.10;9.60;;;8.50;99.90;;;;;;5005830;28;20417;-31
2021/12/16 02:40:11;;;;;;;25.33;10.03;;;8.50;99.90;;;;;;5008864;28;20104;-30
2021/12/16 02:42:51;;;;;;;24.90;9.43;;;8.50;99.90;;;;;;5008902;28;20444;-31
2021/12/16 02:50:46;;;;;;;23.50;9.20;;;8.50;99.90;;;;;;5009499;28;20087;-30
2021/12/16 02:53:12;;;;;;;29.23;9.63;;;8.50;99.90;;;;;;5007131;28;20037;-30
2021/12/16 02:55:37;;;;;;;24.20;9.20;;;8.40;99.90;;;;;;5009147;28;20456;-30
2021/12/16 02:58:03;;;;;;;23.90;8.77;;;8.40;99.90;;;;;;4993206;28;20045;-30
2021/12/16 03:00:37;;;;;;;25.87;9.03;;;8.40;99.90;;;;;;5010608;28;20045;-30
2021/12/16 03:03:03;;;;;;;25.67;9.07;;;8.40;99.90;;;;;;5008238;28;20044;-31
2021/12/16 03:05:28;;;;;;;22.33;8.80;;;8.40;99.90;;;;;;5024645;28;20041;-30
2021/12/16 03:07:54;;;;;;;22.83;8.63;;;8.40;99.90;;;;;;5011057;28;20408;-31
2021/12/16 03:10:58;;;;;;;24.47;8.47;;;8.40;99.90;;;;;;5010815;28;20051;-30
2021/12/16 03:13:33;;;;;;;18.47;8.17;;;8.30;99.90;;;;;;5027725;28;20037;-31
2021/12/16 03:21:27;;;;;;;20.23;7.70;;;8.20;99.90;;;;;;4984595;28;20444;-30
2021/12/16 03:24:09;;;;;;;19.48;8.00;;;8.20;99.90;;;;;;5021055;28;20045;-30
2021/12/16 03:32:13;;;;;;;21.97;7.50;;;8.10;99.90;;;;;;5028131;28;20041;-31
2021/12/16 03:35:03;;;;;;;19.13;8.30;;;8.10;99.90;;;;;;5027649;28;20123;-31
2021/12/16 03:37:26;;;;;;;22.40;8.57;;;8.10;99.90;;;;;;5004611;28;20042;-30
2021/12/16 03:39:57;;;;;;;19.20;7.97;;;8.10;99.90;;;;;;5008307;28;20046;-30
2021/12/16 03:42:33;;;;;;;20.85;8.90;;;8.00;99.90;;;;;;5007992;28;20046;-30
2021/12/16 03:46:25;;;;;;;22.93;8.00;;;8.00;99.90;;;;;;5008566;28;20046;-31
2021/12/16 03:48:10;;;;;;;23.27;8.40;;;8.00;99.90;;;;;;4992469;28;20069;-30
2021/12/16 03:50:36;;;;;;;20.57;8.23;;;7.90;99.90;;;;;;5007192;28;20041;-30
2021/12/16 03:53:04;;;;;;;20.40;8.47;;;7.90;99.90;;;;;;5007634;28;20056;-30
2021/12/16 03:55:30;;;;;;;19.57;8.17;;;7.90;99.90;;;;;;5008532;28;20139;-30
2021/12/16 03:57:55;;;;;;;20.70;8.83;;;7.80;99.90;;;;;;4990690;28;20569;-30
2021/12/16 04:00:29;;;;;;;20.50;8.53;;;7.80;99.90;;;;;;5009896;28;20128;-31
2021/12/16 04:02:55;;;;;;;24.47;8.97;;;7.80;99.90;;;;;;5005838;28;20052;-30
2021/12/16 04:05:22;;;;;;;20.50;8.33;;;7.70;99.90;;;;;;5022914;28;20037;-30
2021/12/16 04:07:49;;;;;;;24.47;8.57;;;7.70;99.90;;;;;;5010129;28;20045;-30
2021/12/16 04:10:26;;;;;;;26.27;8.60;;;7.60;99.90;;;;;;5028374;28;20037;-30
2021/12/16 04:12:52;;;;;;;21.23;7.80;;;7.60;99.90;;;;;;5025985;28;20126;-30
2021/12/16 04:15:18;;;;;;;19.70;8.50;;;7.60;99.90;;;;;;5016224;28;20121;-31
2021/12/16 04:17:44;;;;;;;16.37;8.67;;;7.60;99.90;;;;;;4991897;28;20045;-30
2021/12/16 04:20:13;;;;;;;26.60;8.67;;;7.50;99.90;;;;;;5008040;28;20081;-30
2021/12/16 04:22:43;;;;;;;19.43;8.30;;;7.50;99.90;;;;;;5010133;28;20037;-30
2021/12/16 04:25:22;;;;;;;31.33;8.83;;;7.50;99.90;;;;;;5027404;28;20046;-30
2021/12/16 04:27:51;;;;;;;22.53;7.77;;;7.50;99.90;;;;;;5011511;28;20053;-30
2021/12/16 04:30:18;;;;;;;22.40;8.43;;;7.50;99.90;;;;;;5026328;28;20051;-30
2021/12/16 04:32:44;;;;;;;21.13;8.53;;;7.40;99.90;;;;;;5027161;28;20453;-30
2021/12/16 04:35:10;;;;;;;23.37;8.83;;;7.40;99.90;;;;;;5027777;28;20049;-30
2021/12/16 04:37:36;;;;;;;23.10;8.80;;;7.40;99.90;;;;;;5004817;28;20112;-30
2021/12/16 04:40:07;;;;;;;24.43;9.50;;;7.40;99.90;;;;;;5007639;28;20072;-30
2021/12/16 04:42:33;;;;;;;21.03;8.90;;;7.40;99.90;;;;;;5007285;28;20077;-30
2021/12/16 04:44:59;;;;;;;21.50;8.67;;;7.30;99.90;;;;;;5008149;28;20478;-30
2021/12/16 04:47:25;;;;;;;21.53;8.47;;;7.40;99.90;;;;;;4990551;28;20430;-30
2021/12/16 04:49:51;;;;;;;18.70;8.13;;;7.30;99.90;;;;;;5006363;28;20069;-30
2021/12/16 04:52:18;;;;;;;22.93;8.90;;;7.30;99.90;;;;;;5007114;28;20045;-30
2021/12/16 04:54:47;;;;;;;23.73;8.73;;;7.30;99.90;;;;;;5007114;28;20050;-30
2021/12/16 04:57:14;;;;;;;17.93;8.40;;;7.30;99.90;;;;;;4992240;28;20038;-31
2021/12/16 04:59:39;;;;;;;23.77;8.83;;;7.20;99.90;;;;;;5006080;28;20052;-30
2021/12/16 05:02:07;;;;;;;20.97;9.30;;;7.20;99.90;;;;;;5011068;28;20096;-31
2021/12/16 05:04:33;;;;;;;17.57;8.17;;;7.10;99.90;;;;;;5018990;28;20481;-30
2021/12/16 05:06:59;;;;;;;21.23;8.77;;;7.10;99.90;;;;;;5015666;28;20041;-30
2021/12/16 05:10:10;;;;;;;26.53;9.00;;;7.10;99.90;;;;;;5030186;28;20064;-30
2021/12/16 05:12:21;;;;;;;15.60;8.67;;;7.10;99.90;;;;;;5032262;28;20046;-31
2021/12/16 05:14:48;;;;;;;20.67;8.90;;;7.00;99.90;;;;;;5023519;28;20053;-30
2021/12/16 05:17:39;;;;;;;21.83;8.60;;;7.00;99.90;;;;;;4994647;28;20560;-30
2021/12/16 05:20:09;;;;;;;12.00;6.80;;;7.00;99.90;;;;;;5011025;28;20050;-30
2021/12/16 05:28:03;;;;;;;19.08;9.07;;;6.90;99.90;;;;;;5013315;28;20053;-30
2021/12/16 05:30:28;;;;;;;19.57;8.67;;;6.90;99.90;;;;;;5030858;28;20049;-30
2021/12/16 05:32:54;;;;;;;24.87;9.00;;;6.80;99.90;;;;;;5028504;28;20052;-30
2021/12/16 05:35:23;;;;;;;20.73;9.10;;;6.90;99.90;;;;;;5030347;28;20165;-30
2021/12/16 05:37:49;;;;;;;20.00;9.33;;;6.80;99.90;;;;;;5003856;28;20532;-30
2021/12/16 05:40:23;;;;;;;21.80;10.77;;;6.80;99.90;;;;;;5010373;28;20070;-30
2021/12/16 05:42:51;;;;;;;27.17;10.70;;;6.80;99.90;;;;;;5022761;28;20134;-30
2021/12/16 05:45:17;;;;;;;17.77;9.20;;;6.70;99.90;;;;;;5029525;28;20049;-30
2021/12/16 05:47:43;;;;;;;20.43;9.73;;;6.70;99.90;;;;;;5012952;28;20047;-30
2021/12/16 05:50:10;;;;;;;22.67;8.87;;;6.70;99.90;;;;;;5029089;28;20037;-30
2021/12/16 05:52:37;;;;;;;25.80;9.37;;;6.60;99.90;;;;;;5029221;28;20052;-30
2021/12/16 05:55:05;;;;;;;21.13;8.87;;;6.70;99.90;;;;;;5030145;28;20052;-30
2021/12/16 05:57:31;;;;;;;16.53;8.33;;;6.60;99.90;;;;;;5012670;28;20111;-30
2021/12/16 05:59:56;;;;;;;19.23;8.13;;;6.60;99.90;;;;;;5030149;28;20496;-30
2021/12/16 06:02:22;;;;;;;23.53;9.53;;;6.60;99.90;;;;;;5029355;28;20080;-30
2021/12/16 06:04:50;;;;;;;22.70;8.93;;;6.60;99.90;;;;;;5028217;28;20128;-30
2021/12/16 06:07:17;;;;;;;22.33;9.27;;;6.60;99.90;;;;;;5013990;28;20049;-30
2021/12/16 06:09:44;;;;;;;19.13;8.73;;;6.50;99.90;;;;;;5029652;28;20073;-30
2021/12/16 06:12:10;;;;;;;26.47;9.30;;;6.50;99.90;;;;;;5028113;28;20443;-30
2021/12/16 06:14:57;;;;;;;24.33;9.13;;;6.50;99.90;;;;;;5022994;28;20045;-30
2021/12/16 06:28:34;;;;;;;19.40;9.10;;;6.40;99.90;;;;;;4992669;28;20049;-30
2021/12/16 06:31:00;;;;;;;23.60;9.33;;;6.30;99.90;;;;;;5009964;28;20469;-30
2021/12/16 06:33:29;;;;;;;18.50;8.70;;;6.40;99.90;;;;;;5024066;28;20088;-30
2021/12/16 06:35:55;;;;;;;23.10;9.07;;;6.30;99.90;;;;;;5014012;28;20467;-30
2021/12/16 06:38:22;;;;;;;16.57;8.37;;;6.30;99.90;;;;;;4999776;28;20050;-30
2021/12/16 06:40:49;;;;;;;22.33;8.50;;;6.30;99.90;;;;;;5009477;28;20064;-30
2021/12/16 06:43:17;;;;;;;20.97;8.90;;;6.30;99.90;;;;;;5026853;28;20403;-30
2021/12/16 06:45:47;;;;;;;18.53;8.97;;;6.30;99.90;;;;;;5029288;28;20045;-30
2021/12/16 06:48:18;;;;;;;16.23;8.63;;;6.30;99.90;;;;;;5013095;28;20053;-30
2021/12/16 06:53:22;;;;;;;18.87;9.33;;;6.30;99.90;;;;;;5028544;28;20038;-30
2021/12/16 06:58:29;;;;;;;19.60;9.07;;;6.30;99.90;;;;;;5012400;28;20140;-30
2021/12/16 07:01:07;;;;;;;25.23;10.38;;;6.30;99.90;;;;;;5027570;28;20089;-30
2021/12/16 07:03:45;;;;;;;25.40;10.17;;;6.20;99.90;;;;;;5026899;28;20393;-30
2021/12/16 07:06:12;;;;;;;24.90;9.67;;;6.50;99.90;;;;;;5021314;28;20053;-30
2021/12/16 07:08:38;;;;;;;21.83;10.53;;;6.30;99.90;;;;;;5021888;28;20061;-30
2021/12/16 07:11:03;;;;;;;26.63;10.50;;;6.20;99.90;;;;;;5027114;28;20052;-30
2021/12/16 07:13:35;;;;;;;26.17;11.20;;;6.20;99.90;;;;;;5024573;28;20053;-30
2021/12/16 07:16:01;;;;;;;28.00;10.77;;;6.30;99.90;;;;;;5009897;28;20045;-30
2021/12/16 07:18:27;;;;;;;23.07;11.00;;;6.20;99.90;;;;;;4993630;28;20060;-30
2021/12/16 07:20:52;;;;;;;24.80;10.67;;;6.20;99.90;;;;;;5027299;28;20053;-30
2021/12/16 07:23:18;;;;;;;27.93;10.63;;;6.20;99.90;;;;;;5024553;28;20140;-30
2021/12/16 07:25:44;;;;;;;23.07;10.03;;;6.10;99.90;;;;;;5026202;28;20085;-30
2021/12/16 07:28:10;;;;;;;23.13;9.80;;;6.20;99.90;;;;;;5009079;28;20080;-30
2021/12/16 07:30:38;;;;;;;19.97;9.93;;;6.20;99.90;;;;;;5027082;28;20045;-30
2021/12/16 07:33:05;;;;;;;24.57;10.30;;;6.20;99.90;;;;;;5024734;28;20612;-30
2021/12/16 07:35:31;;;;;;;23.57;10.63;;;6.20;99.90;;;;;;5025033;28;20508;-30
2021/12/16 07:37:57;;;;;;;27.03;10.80;;;6.20;99.90;;;;;;5011773;28;20048;-30
2021/12/16 07:40:26;;;;;;;26.03;10.97;;;6.20;99.90;;;;;;5028004;28;20045;-30
2021/12/16 07:43:10;;;;;;;30.90;12.07;;;6.20;99.90;;;;;;5025715;28;20497;-30
2021/12/16 07:45:42;;;;;;;29.13;12.03;;;6.20;99.90;;;;;;5027371;28;20041;-30
2021/12/16 07:48:11;;;;;;;25.23;11.87;;;6.30;99.90;;;;;;5011135;28;20131;-30
2021/12/16 07:50:37;;;;;;;27.33;12.20;;;6.30;99.90;;;;;;5024697;28;20061;-30
2021/12/16 07:53:05;;;;;;;28.07;13.03;;;6.30;99.90;;;;;;5026863;28;20099;-30
2021/12/16 07:55:32;;;;;;;29.37;13.23;;;6.30;99.90;;;;;;5026769;28;20041;-30
2021/12/16 07:57:58;;;;;;;39.67;13.33;;;6.30;99.90;;;;;;5010495;28;20045;-30
2021/12/16 08:00:27;;;;;;;27.17;13.50;;;6.30;99.90;;;;;;5027639;28;20138;-30
2021/12/16 08:02:54;;;;;;;30.30;12.37;;;6.40;99.90;;;;;;5024567;28;20077;-30
2021/12/16 08:05:23;;;;;;;32.43;14.10;;;6.40;99.90;;;;;;5025963;28;20110;-30
2021/12/16 08:07:49;;;;;;;29.83;13.50;;;6.40;99.90;;;;;;5011198;28;20574;-30
2021/12/16 08:10:17;;;;;;;23.97;12.70;;;6.30;99.90;;;;;;5025152;28;20449;-30
2021/12/16 08:12:43;;;;;;;33.80;13.47;;;6.40;99.90;;;;;;5026295;28;20381;-30
2021/12/16 08:15:10;;;;;;;31.57;13.83;;;6.40;99.90;;;;;;5016642;28;20041;-30
2021/12/16 08:17:35;;;;;;;33.77;13.67;;;6.40;99.90;;;;;;5001978;28;20049;-30
2021/12/16 08:20:04;;;;;;;26.47;12.83;;;6.40;99.90;;;;;;5022532;28;20385;-30
2021/12/16 08:22:30;;;;;;;31.97;13.73;;;6.50;99.90;;;;;;5022420;28;20065;-30
2021/12/16 08:24:56;;;;;;;31.47;13.77;;;6.40;99.90;;;;;;5026213;28;20061;-30
2021/12/16 08:27:21;;;;;;;29.73;13.93;;;6.40;99.90;;;;;;5008795;28;20052;-30
2021/12/16 08:29:47;;;;;;;37.60;14.10;;;6.40;99.90;;;;;;5026939;28;20057;-30
2021/12/16 08:32:13;;;;;;;33.50;14.50;;;6.40;99.90;;;;;;5025867;28;20038;-30
2021/12/16 08:34:39;;;;;;;33.40;14.93;;;6.40;99.90;;;;;;5024747;28;20099;-30
2021/12/16 08:37:07;;;;;;;34.90;14.83;;;6.40;99.90;;;;;;5010406;28;20038;-31
2021/12/16 08:39:34;;;;;;;32.53;13.97;;;6.40;99.90;;;;;;5029398;28;20086;-30
2021/12/16 08:42:00;;;;;;;36.37;15.50;;;6.40;99.90;;;;;;5030419;28;20037;-30
2021/12/16 08:44:27;;;;;;;32.43;15.57;;;6.40;99.90;;;;;;5029235;28;20045;-30
2021/12/16 08:46:58;;;;;;;31.27;15.77;;;6.50;99.90;;;;;;5013606;28;20054;-30
2021/12/16 08:49:25;;;;;;;32.97;15.63;;;6.50;99.90;;;;;;5028835;28;20041;-30
2021/12/16 08:51:54;;;;;;;36.50;16.07;;;6.50;99.90;;;;;;5030518;28;20049;-30
2021/12/16 08:54:20;;;;;;;37.03;17.07;;;6.50;99.90;;;;;;5027727;28;20431;-30
2021/12/16 08:56:46;;;;;;;36.37;18.07;;;6.50;99.90;;;;;;5013046;28;20397;-31
2021/12/16 08:59:13;;;;;;;45.03;17.57;;;6.50;99.90;;;;;;5029053;28;20057;-31
2021/12/16 09:01:45;;;;;;;38.27;17.83;;;6.50;99.90;;;;;;5029742;28;20404;-30
2021/12/16 09:04:11;;;;;;;37.07;15.77;;;6.60;99.90;;;;;;5028759;28;20083;-30
2021/12/16 09:06:38;;;;;;;27.90;14.77;;;6.60;99.90;;;;;;5014861;28;20440;-30
2021/12/16 09:09:06;;;;;;;33.90;14.87;;;6.50;99.90;;;;;;5026225;28;20071;-30
2021/12/16 09:11:38;;;;;;;30.77;15.67;;;6.50;99.90;;;;;;5028852;28;20297;-30
2021/12/16 09:14:04;;;;;;;36.58;15.43;;;6.50;99.90;;;;;;5027180;28;20107;-30
2021/12/16 09:16:32;;;;;;;38.63;16.50;;;6.60;99.90;;;;;;5015909;28;20590;-30
2021/12/16 09:18:58;;;;;;;39.43;16.23;;;6.60;99.90;;;;;;5027356;28;20107;-30
2021/12/16 09:21:29;;;;;;;38.57;16.73;;;6.50;99.90;;;;;;5030100;28;20223;-30
2021/12/16 09:23:57;;;;;;;36.00;13.15;;;6.50;99.90;;;;;;5028980;28;20045;-30
2021/12/16 09:26:24;;;;;;;44.60;18.00;;;6.50;99.90;;;;;;5017279;28;20060;-30
2021/12/16 09:28:51;;;;;;;48.87;18.60;;;6.50;99.90;;;;;;5025904;28;20041;-30
2021/12/16 09:31:20;;;;;;;50.03;19.80;;;6.50;99.90;;;;;;5028501;28;20524;-30
2021/12/16 09:33:50;;;;;;;60.87;19.70;;;6.50;99.90;;;;;;5028346;28;20049;-30
2021/12/16 09:36:19;;;;;;;71.07;19.67;;;6.60;99.90;;;;;;5019489;28;20033;-31
2021/12/16 09:38:46;;;;;;;62.37;19.67;;;6.60;99.90;;;;;;5022551;28;20076;-31
2021/12/16 09:41:12;;;;;;;65.53;20.73;;;6.60;99.90;;;;;;5029930;28;20378;-30
2021/12/16 09:43:42;;;;;;;96.50;21.87;;;6.60;99.90;;;;;;5028642;28;20100;-30
2021/12/16 09:46:10;;;;;;;102.67;23.03;;;6.60;99.90;;;;;;5024902;28;20041;-30
2021/12/16 09:48:37;;;;;;;79.70;22.67;;;6.60;99.90;;;;;;5020511;28;20045;-30
2021/12/16 09:51:06;;;;;;;98.23;22.63;;;6.60;99.90;;;;;;5028990;28;20037;-30
2021/12/16 09:53:33;;;;;;;107.63;22.97;;;6.80;99.90;;;;;;5010301;28;20049;-30
2021/12/16 09:56:01;;;;;;;113.33;24.53;;;6.70;99.90;;;;;;5029834;28;20063;-30
2021/12/16 09:58:32;;;;;;;92.67;23.73;;;6.70;99.90;;;;;;5008993;28;20072;-30
2021/12/16 10:00:58;;;;;;;99.38;26.15;;;6.70;99.90;;;;;;5027625;28;20053;-30
2021/12/16 10:03:28;;;;;;;76.73;25.40;;;6.80;99.90;;;;;;5027714;28;20037;-30
2021/12/16 10:05:54;;;;;;;102.87;25.07;;;6.80;99.90;;;;;;5028450;28;20517;-30
2021/12/16 10:08:21;;;;;;;117.17;25.23;;;6.80;99.90;;;;;;5012062;28;20083;-30
2021/12/16 10:10:46;;;;;;;73.73;24.43;;;6.90;99.90;;;;;;5028950;28;20064;-30
2021/12/16 10:13:20;;;;;;;88.10;25.57;;;6.90;99.90;;;;;;5028584;28;20551;-30
2021/12/16 10:18:19;;;;;;;50.97;22.07;;;7.00;99.90;;;;;;5011185;28;20515;-30
2021/12/16 10:20:51;;;;;;;51.00;21.63;;;6.90;99.90;;;;;;5029248;28;20592;-30
2021/12/16 10:23:21;;;;;;;89.63;20.70;;;7.10;99.90;;;;;;5023822;28;20049;-30
2021/12/16 10:25:59;;;;;;;57.30;19.70;;;7.00;99.90;;;;;;5027198;28;20483;-30
2021/12/16 10:28:36;;;;;;;70.33;19.50;;;7.10;99.90;;;;;;5010455;28;20283;-30
2021/12/16 10:31:13;;;;;;;61.30;19.00;;;7.20;99.90;;;;;;5028590;28;20300;-30
2021/12/16 10:33:40;;;;;;;37.77;18.23;;;7.20;99.90;;;;;;5022277;28;20053;-30
2021/12/16 10:36:14;;;;;;;73.67;21.53;;;7.20;99.90;;;;;;5026476;28;20119;-31
2021/12/16 10:38:57;;;;;;;109.23;20.90;;;7.30;99.90;;;;;;5012324;28;21712;-30
2021/12/16 10:41:32;;;;;;;86.33;19.87;;;7.30;99.90;;;;;;5008006;28;20049;-31
2021/12/16 10:44:14;;;;;;;91.13;19.57;;;7.30;99.90;;;;;;5019089;28;20045;-30
2021/12/16 10:46:59;;;;;;;75.70;18.80;;;7.30;99.90;;;;;;5003323;28;20084;-30
2021/12/16 10:49:29;;;;;;;125.07;19.47;;;7.40;99.90;;;;;;5015736;28;20041;-30
2021/12/16 10:52:07;;;;;;;129.80;19.40;;;7.40;99.90;;;;;;5013534;28;20088;-30
2021/12/16 10:54:37;;;;;;;58.00;18.47;;;7.40;99.90;;;;;;5019529;28;20121;-31
2021/12/16 10:57:04;;;;;;;56.37;18.13;;;7.40;99.90;;;;;;5006800;28;20080;-30
2021/12/16 10:59:38;;;;;;;74.67;19.17;;;7.40;99.90;;;;;;5018430;28;20113;-30
2021/12/16 11:02:30;;;;;;;122.90;20.37;;;7.50;99.90;;;;;;5015050;28;20046;-30
2021/12/16 11:05:00;;;;;;;109.87;20.53;;;7.50;99.90;;;;;;5017433;28;20449;-30
2021/12/16 11:07:38;;;;;;;116.80;20.87;;;7.50;99.90;;;;;;5002432;28;20703;-31
2021/12/16 11:10:10;;;;;;;91.27;21.90;;;7.60;99.90;;;;;;5019361;28;20512;-30
2021/12/16 11:12:38;;;;;;;65.33;20.73;;;7.60;99.90;;;;;;5018203;28;20454;-30
2021/12/16 11:15:18;;;;;;;107.43;22.03;;;7.60;99.90;;;;;;5020321;28;20131;-30
2021/12/16 11:17:58;;;;;;;64.57;23.50;;;7.60;99.90;;;;;;5002559;28;21465;-30
2021/12/16 11:20:42;;;;;;;127.27;23.47;;;7.70;99.90;;;;;;5021799;28;20118;-31
2021/12/16 11:23:18;;;;;;;136.53;23.17;;;7.70;99.90;;;;;;5019683;28;20460;-31
2021/12/16 11:25:46;;;;;;;90.30;22.53;;;7.70;99.90;;;;;;5019260;28;20049;-30
2021/12/16 11:28:28;;;;;;;84.30;22.80;;;7.80;99.90;;;;;;5005873;28;20064;-31
2021/12/16 11:30:55;;;;;;;106.87;22.53;;;7.80;99.90;;;;;;5022267;28;20131;-31
2021/12/16 11:33:33;;;;;;;76.50;24.10;;;7.80;99.90;;;;;;5019036;28;20050;-31
2021/12/16 11:36:16;;;;;;;75.47;24.13;;;7.80;99.90;;;;;;5020077;28;20060;-31
2021/12/16 11:38:48;;;;;;;93.33;25.27;;;7.90;99.90;;;;;;5012637;28;20057;-30
2021/12/16 11:41:41;;;;;;;105.00;25.25;;;7.90;99.90;;;;;;5021036;28;20128;-30
2021/12/16 11:44:20;;;;;;;124.50;23.90;;;7.90;99.90;;;;;;5019207;28;20440;-30
2021/12/16 11:47:11;;;;;;;79.67;24.33;;;7.90;99.90;;;;;;5003894;28;20050;-31
2021/12/16 11:49:39;;;;;;;65.90;23.40;;;7.90;99.90;;;;;;5019856;28;20447;-31
2021/12/16 11:52:07;;;;;;;106.80;25.57;;;8.00;99.90;;;;;;5015823;28;20090;-31
2021/12/16 11:54:35;;;;;;;110.40;23.70;;;8.10;99.90;;;;;;5016234;28;20058;-31
2021/12/16 11:57:20;;;;;;;74.70;22.73;;;8.10;99.90;;;;;;5004623;28;20057;-31
2021/12/16 11:59:54;;;;;;;83.27;21.37;;;8.10;99.90;;;;;;5018541;28;20323;-30
2021/12/16 12:02:25;;;;;;;92.13;22.00;;;8.10;99.90;;;;;;5016938;28;20033;-31
2021/12/16 12:04:51;;;;;;;71.72;21.35;;;8.10;99.90;;;;;;5019129;28;20566;-30
2021/12/16 12:07:18;;;;;;;78.33;19.87;;;8.10;99.90;;;;;;5004135;28;20689;-30
2021/12/16 12:09:52;;;;;;;56.70;20.20;;;8.20;99.90;;;;;;5022094;28;20049;-31
2021/12/16 12:12:49;;;;;;;50.33;19.23;;;8.20;99.90;;;;;;5023242;28;20539;-31
2021/12/16 12:15:18;;;;;;;56.83;19.07;;;8.20;99.90;;;;;;5025467;28;20047;-31
2021/12/16 12:17:55;;;;;;;47.87;18.50;;;8.20;99.90;;;;;;5008629;28;20057;-31
2021/12/16 12:20:27;;;;;;;78.63;19.17;;;8.30;99.90;;;;;;5024691;28;20247;-30
2021/12/16 12:22:53;;;;;;;73.23;18.80;;;8.30;99.90;;;;;;5023755;28;20053;-30
2021/12/16 12:25:20;;;;;;;70.53;19.77;;;8.30;99.90;;;;;;5022789;28;20053;-31
2021/12/16 12:27:47;;;;;;;70.33;19.60;;;8.30;99.90;;;;;;5005938;28;20054;-31
2021/12/16 12:30:13;;;;;;;76.27;19.70;;;8.30;99.90;;;;;;5023693;28;20868;-30
2021/12/16 12:32:46;;;;;;;47.77;19.17;;;8.30;99.90;;;;;;5021890;28;20268;-31
2021/12/16 12:35:17;;;;;;;59.97;19.83;;;8.40;99.90;;;;;;5024814;28;20424;-31
2021/12/16 12:37:47;;;;;;;84.88;20.27;;;8.40;99.90;;;;;;5007022;28;20442;-30
2021/12/16 12:40:18;;;;;;;92.03;19.83;;;8.40;99.90;;;;;;5023090;28;20038;-31
2021/12/16 12:42:46;;;;;;;62.13;20.45;;;8.40;99.90;;;;;;5022572;28;20053;-31
2021/12/16 12:45:15;;;;;;;80.43;20.97;;;8.40;99.90;;;;;;5023199;28;20095;-31
2021/12/16 12:47:47;;;;;;;64.10;22.53;;;8.40;99.90;;;;;;5006190;28;20432;-30
2021/12/16 12:50:24;;;;;;;85.50;22.47;;;8.40;99.90;;;;;;5025205;28;20049;-30
2021/12/16 12:52:53;;;;;;;88.87;22.57;;;8.50;99.90;;;;;;5023709;28;20052;-30
2021/12/16 12:55:22;;;;;;;107.47;22.27;;;8.60;99.90;;;;;;5024904;28;20048;-30
2021/12/16 12:57:48;;;;;;;100.03;25.40;;;8.50;99.90;;;;;;5007633;28;20599;-31
2021/12/16 13:00:34;;;;;;;70.33;23.93;;;8.50;99.90;;;;;;5023852;28;20725;-31
2021/12/16 13:03:07;;;;;;;83.07;22.50;;;8.50;99.90;;;;;;5020508;28;20104;-31
2021/12/16 13:05:34;;;;;;;91.03;25.13;;;8.60;99.90;;;;;;5019946;28;20029;-30
2021/12/16 13:08:05;;;;;;;87.20;24.37;;;8.60;99.90;;;;;;5006164;28;20092;-31
2021/12/16 13:10:33;;;;;;;70.93;23.15;;;8.70;99.90;;;;;;5022748;28;20116;-31
2021/12/16 13:32:49;;;;;;;68.00;24.47;;;8.80;99.90;;;;;;5020214;28;20068;-30
2021/12/16 13:35:32;;;;;;;68.20;23.45;;;8.70;99.90;;;;;;5022152;28;20462;-31
2021/12/16 13:37:59;;;;;;;76.77;23.70;;;8.70;99.90;;;;;;5008594;28;20099;-31
2021/12/16 13:40:36;;;;;;;60.83;20.80;;;8.70;99.90;;;;;;5022179;28;20033;-31
2021/12/16 13:43:11;;;;;;;71.67;21.43;;;8.80;99.90;;;;;;5019285;28;20045;-31
2021/12/16 13:45:48;;;;;;;61.33;21.57;;;8.80;99.90;;;;;;5019956;28;20061;-31
2021/12/16 14:05:26;;;;;;;52.63;15.97;;;8.80;99.90;;;;;;5023387;28;21013;-31
2021/12/16 14:08:01;;;;;;;54.60;16.88;;;8.80;99.90;;;;;;5007634;28;20273;-31
2021/12/16 14:10:58;;;;;;;47.17;16.00;;;8.80;99.90;;;;;;5023951;28;20126;-31
2021/12/16 14:16:31;;;;;;;39.00;14.47;;;8.90;99.90;;;;;;5009720;28;20405;-31
2021/12/16 14:25:14;;;;;;;47.20;15.77;;;8.90;99.90;;;;;;5023121;28;20420;-30
2021/12/16 14:36:49;;;;;;;39.20;15.00;;;8.80;99.90;;;;;;5025834;28;20041;-31
2021/12/16 14:42:29;;;;;;;38.10;15.30;;;8.80;99.90;;;;;;5026468;28;20514;-30
2021/12/16 14:45:24;;;;;;;32.90;14.73;;;8.80;99.90;;;;;;5023038;28;20045;-30
2021/12/16 14:50:28;;;;;;;32.63;13.93;;;8.80;99.90;;;;;;5027634;28;20045;-30
2021/12/16 14:52:56;;;;;;;30.47;14.20;;;8.80;99.90;;;;;;5025561;28;20048;-31
2021/12/16 14:55:23;;;;;;;30.93;14.37;;;8.80;99.90;;;;;;5026365;28;20401;-30
2021/12/16 14:57:51;;;;;;;29.50;14.50;;;8.90;99.90;;;;;;5010178;28;20148;-30
2021/12/16 15:00:20;;;;;;;30.87;14.00;;;8.80;99.90;;;;;;5027053;28;20041;-30
2021/12/16 15:02:49;;;;;;;29.80;14.40;;;8.80;99.90;;;;;;5023489;28;20476;-31
2021/12/16 15:05:35;;;;;;;35.30;14.80;;;8.80;99.90;;;;;;5026447;28;20041;-30
2021/12/16 15:08:07;;;;;;;34.70;15.40;;;8.80;99.90;;;;;;5007792;28;20076;-30
2021/12/16 15:10:34;;;;;;;32.10;15.87;;;8.80;99.90;;;;;;5023852;28;20046;-31
2021/12/16 15:13:08;;;;;;;33.70;16.00;;;8.80;99.90;;;;;;5025184;28;20516;-31
2021/12/16 15:15:43;;;;;;;32.20;15.57;;;8.80;99.90;;;;;;5023232;28;20037;-31
2021/12/16 15:37:51;;;;;;;36.97;18.00;;;8.70;99.90;;;;;;5008804;28;20038;-31
2021/12/16 15:40:18;;;;;;;42.80;18.83;;;8.80;99.90;;;;;;5025155;28;20049;-31
2021/12/16 15:45:26;;;;;;;35.50;17.57;;;8.70;99.90;;;;;;5023535;28;19921;-31
2021/12/16 15:47:59;;;;;;;41.87;19.53;;;8.70;99.90;;;;;;5007749;28;20077;-30
2021/12/16 15:50:28;;;;;;;55.67;21.43;;;8.70;99.90;;;;;;5026097;28;20033;-31
2021/12/16 15:52:54;;;;;;;47.53;20.63;;;8.70;99.90;;;;;;5022937;28;20059;-31
2021/12/16 15:55:33;;;;;;;40.13;18.87;;;8.70;99.90;;;;;;5024483;28;20041;-30
2021/12/16 15:58:15;;;;;;;38.57;19.47;;;8.70;99.90;;;;;;4993460;28;20057;-31
2021/12/16 16:00:45;;;;;;;47.77;21.53;;;8.70;99.90;;;;;;5023874;28;20481;-31
2021/12/16 16:03:14;;;;;;;36.43;20.13;;;8.70;99.90;;;;;;5019465;28;20045;-30
2021/12/16 16:05:52;;;;;;;52.20;21.73;;;8.80;99.90;;;;;;5021444;28;20172;-31
2021/12/16 16:08:20;;;;;;;46.57;22.27;;;8.80;99.90;;;;;;5004151;28;20052;-30
2021/12/16 16:10:50;;;;;;;46.13;21.17;;;8.80;99.90;;;;;;5022198;28;20056;-31
2021/12/16 16:13:22;;;;;;;45.27;22.30;;;8.70;99.90;;;;;;5019951;28;20649;-31
2021/12/16 16:15:50;;;;;;;60.90;22.70;;;8.70;99.90;;;;;;5020330;28;20053;-30
2021/12/16 16:20:57;;;;;;;54.33;23.00;;;8.80;99.90;;;;;;5019930;28;20129;-30
2021/12/16 16:23:25;;;;;;;48.83;22.83;;;8.70;99.90;;;;;;5021208;28;20385;-31
2021/12/16 16:25:52;;;;;;;47.43;22.90;;;8.70;99.90;;;;;;5019721;28;20439;-31
2021/12/16 16:28:21;;;;;;;54.47;23.37;;;8.70;99.90;;;;;;5006486;28;20092;-31
2021/12/16 16:30:47;;;;;;;53.10;22.93;;;8.70;99.90;;;;;;5021314;28;20049;-30
2021/12/16 16:33:18;;;;;;;50.20;23.27;;;8.80;99.90;;;;;;5019969;28;20472;-30
2021/12/16 16:35:46;;;;;;;;;;;8.70;99.90;;;;;;5023358;28;20077;-31
2021/12/16 16:38:27;;;;;;;47.20;22.43;;;8.70;99.90;;;;;;5006342;28;20009;-31
2021/12/16 16:40:57;;;;;;;54.03;23.83;;;8.60;99.90;;;;;;5035268;28;20549;-31
2021/12/16 16:43:32;;;;;;;57.43;25.53;;;8.70;99.90;;;;;;5003499;28;20046;-31
2021/12/16 16:46:04;;;;;;;66.43;25.60;;;8.70;99.90;;;;;;5019760;28;20041;-30
2021/12/16 16:48:47;;;;;;;56.10;25.63;;;8.70;99.90;;;;;;5005861;28;20049;-31